Detall de PIREP

Printer-friendly versionPDF version

[2008/12/25 22:16:00]
Flight IATA:CT0001
Pilot Number:041
Company ICAO:CAT
Aircraft Type:BE20/A
PAX:3
Departing Airport: LEAL
Destination Airport: LELC
Alternate Airport:LEAL
Online: VATSIM
Route:MAGAL2D PALOS1D
Flight Level:FL110
No Slew and time accel
No pause
Crash detect
Detect pilot in Cockpit between each 30 and 45 minutes
22:16 Zero fuel Weight: 9203 Lbs, Fuel Weight: 1432 Lbs
22:16 VATSIM:LEAL 252200Z 24007KT 220V290 CAVOK 07/02 Q1013 NOSIG
22:16 VATSIM:LELC 252100Z 27003KT CAVOK 07/05 Q1014 NOSIG
22:16 VOICE CATALONIAN
22:18 Parking Brakes off
22:25 Take-off
22:25 Take off Weight: 10587 Lbs
22:25 Wind: 243º @ 004 Knots Heading: 278º
22:25 POS N38º 16´ 55´´ W000º 33´ 24´´
22:25 Gear Up: 142 Knots
22:25 Flaps:1 at 142 Knots
22:26 Flaps:0 at 152 Knots
22:34 TOC
22:34 Fuel Weight: 1256 Lb
22:39 TOD
22:39 Fuel Weight: 1197 Lb
22:40 Wind:006º@008 Knots He
ading: 194º Ground Speed: 238 Knots Altitude 10216 ft
22:55 Wind:262º@004 Knots Heading: 352º Ground Speed: 195 Knots Altitude 3989 ft
23:06 Flaps:1 at 169 Knots
23:06 Gear Down: 152 Knots
23:07 Flaps:2 at 153 Knots
23:09 TouchDown:Rate -113 ft/min Speed: 103 Knots
23:09 Flaps:0 at 95 Knots
23:09 VATSIM:LELC 252100Z 27003KT CAVOK 07/05 Q1014 NOSIG
23:09 Land
23:09 Wind:273º@002 Knots
23:09 Heading: 220º
23:09 Flight Duration: 00:44
23:09 Landing Weight: 10180 Lbs
23:09 POS N37º 46´ 30´´ W000º 48´ 42´´
23:12 Parking brakes on
23:12 Block to Block Duration: 00:54
23:12 Final Fuel: 963 Lbls
23:12 Spent Fuel: 469 Lbls
23:12 Flight Length: 152 NM
23:12 TOD Land Length: 101 NM

Exportar CSV

Powered by Drupal - Modified by Danger4k